Nelsonville, Texas
Current Conditions -  °F | °C
As of 1:15 PM on Thursday 23 Oct 2014 (Local Time) from K11R Reporting Station
Clear Clear  
Wind Chill: 79°   Ceiling: Unl
Heat Index: 79°   Visibility: 10mi
Dew Point: 55°   Wind: 5mph
Humidity: 43%   Direction: 20°NNE
Pressure: 30.13"   Gusts: NA
Location:  29.9944°N, 96.2595°W
Report Text: K11R 231815Z AUTO 02004KT 10SM CLR 26/13 A3013 RMK AO2 T02590125
Loading
Personal Weather Stations






























Interactive Weather Map
Tropical Storm Tracking
New forecast layout! Learn more

10-Day Weather Forecast

Advertisements
Track Severe Weather on mobile